Monday, February 18, 2019, 5:19 AM EST
Back to Local

KCON, Concord, Concord Municipal Airport

Location: Concord, NH, United States Lat: 43.195
Local Time: 5:19 AM EST (10:19 GMT) Lon: -71.501
Time Zone: US/Eastern Elev: 344 ft

Show me the last for .
Show Decoded

2019-02-18 04:51 METAR KCON 180951Z AUTO 30004KT 10SM BKN044 OVC070 M05/M07 A2992 RMK AO2 SLP137
                 T10501072 =
2019-02-18 03:51 METAR KCON 180851Z AUTO 00000KT 10SM OVC060 M04/M08 A2993 RMK AO2 SLP139 60000
                 T10441083 56020 =
2019-02-18 02:51 METAR KCON 180751Z AUTO 00000KT 10SM OVC060 M04/M08 A2995 RMK AO2 SLP147
                 T10391078 =
2019-02-18 01:51 METAR KCON 180651Z AUTO 02003KT 10SM FEW036 OVC080 M04/M08 A2996 RMK AO2
                 SNB27E42 SLP151 P0000 T10391083 =
2019-02-18 00:51 METAR KCON 180551Z AUTO 02003KT 10SM BKN050 OVC070 M04/M09 A2999 RMK AO2 SLP160
                 T10391089 11033 21056 58014 =
2019-02-17 23:51 METAR KCON 180451Z AUTO 00000KT 10SM OVC070 M04/M09 A3001 RMK AO2 SLP167
                 T10391094 400111094 =
2019-02-17 22:51 METAR KCON 180351Z AUTO 00000KT 10SM OVC095 M04/M11 A3002 RMK AO2 SLP171
                 T10391106 =
2019-02-17 21:51 METAR KCON 180251Z AUTO 16003KT 10SM OVC095 M04/M11 A3003 RMK AO2 SLP175
                 T10391111 55006 =
2019-02-17 20:51 METAR KCON 180151Z AUTO 09003KT 10SM BKN110 M04/M12 A3003 RMK AO2 SLP174
                 T10441117 =
2019-02-17 19:51 METAR KCON 180051Z AUTO 00000KT 10SM FEW120 M05/M11 A3005 RMK AO2 SLP181
                 T10501111 =
2019-02-17 18:51 METAR KCON 172351Z AUTO 00000KT 10SM CLR M05/M13 A3005 RMK AO2 SLP182 T10501133
                 10011 21050 53002 =
2019-02-17 17:51 METAR KCON 172251Z AUTO 00000KT 10SM CLR M03/M15 A3003 RMK AO2 SLP176 T10281150
                 =
2019-02-17 16:51 METAR KCON 172151Z AUTO 35003KT 10SM CLR M01/M16 A3002 RMK AO2 SLP172 T10111156
                 =
2019-02-17 15:51 METAR KCON 172051Z AUTO 00000KT 10SM CLR 01/M15 A3004 RMK AO2 SLP179 T00061150
                 58010 =
2019-02-17 14:51 METAR KCON 171951Z AUTO 00000KT 10SM CLR M01/M16 A3008 RMK AO2 SLP190 T10061156
                 =
2019-02-17 13:51 METAR KCON 171851Z AUTO 29004KT 10SM CLR M01/M16 A3005 RMK AO2 SLP182 T10061156
                 =
2019-02-17 12:51 METAR KCON 171751Z AUTO 34005KT 10SM CLR M01/M16 A3007 RMK AO2 SLP189 T10111156
                 11011 21094 58016 =
2019-02-17 11:51 METAR KCON 171651Z AUTO 28007KT 10SM CLR M03/M16 A3009 RMK AO2 SLP195 T10281156
                 =
2019-02-17 10:51 METAR KCON 171551Z AUTO 29005KT 10SM CLR M04/M15 A3012 RMK AO2 SLP204 T10441150
                 =
2019-02-17 09:51 METAR KCON 171451Z AUTO 31008KT 10SM CLR M06/M16 A3012 RMK AO2 SLP206 T10561156
                 51015 =
2019-02-17 08:51 METAR KCON 171351Z AUTO 31010G16KT 10SM CLR M08/M15 A3012 RMK AO2 SLP206
                 T10781150 =
2019-02-17 07:51 METAR KCON 171251Z AUTO 31008KT 10SM CLR M08/M14 A3010 RMK AO2 SLP198 T10831144
                 =
2019-02-17 06:51 METAR KCON 171151Z AUTO 33008KT 10SM CLR M09/M14 A3008 RMK AO2 SLP190 T10941144
                 11067 21094 51017 =
2019-02-17 05:51 METAR KCON 171051Z AUTO 33007KT 10SM CLR M09/M14 A3007 RMK AO2 SLP187 T10891139
                 =

Support USWX by starting your Amazon purchase here.